sensor_id;sensor_type;location;lat;lon;timestamp;pressure;altitude;pressure_sealevel;temperature;humidity
4167;BME280;2097;51.104;7.150;2023-04-07T00:02:24;98616.06;;;6.86;100.00
4167;BME280;2097;51.104;7.150;2023-04-07T00:04:51;98611.81;;;6.85;100.00
4167;BME280;2097;51.104;7.150;2023-04-07T00:07:19;98615.16;;;6.87;100.00
4167;BME280;2097;51.104;7.150;2023-04-07T00:09:46;98614.25;;;6.88;100.00
4167;BME280;2097;51.104;7.150;2023-04-07T00:12:13;98616.69;;;6.91;100.00
4167;BME280;2097;51.104;7.150;2023-04-07T00:14:40;98614.03;;;6.92;100.00
4167;BME280;2097;51.104;7.150;2023-04-07T00:17:07;98621.69;;;6.94;100.00
4167;BME280;2097;51.104;7.150;2023-04-07T00:19:34;98612.22;;;6.94;100.00
4167;BME280;2097;51.104;7.150;2023-04-07T00:22:01;98613.91;;;6.95;100.00
4167;BME280;2097;51.104;7.150;2023-04-07T00:24:29;98612.13;;;6.96;100.00
4167;BME280;2097;51.104;7.150;2023-04-07T00:26:57;98612.13;;;6.96;100.00
4167;BME280;2097;51.104;7.150;2023-04-07T00:29:25;98619.88;;;6.96;100.00
4167;BME280;2097;51.104;7.150;2023-04-07T00:31:52;98609.56;;;6.96;100.00
4167;BME280;2097;51.104;7.150;2023-04-07T00:34:18;98613.00;;;6.96;100.00
4167;BME280;2097;51.104;7.150;2023-04-07T00:36:45;98608.78;;;6.94;100.00
4167;BME280;2097;51.104;7.150;2023-04-07T00:39:16;98589.66;;;6.81;100.00
4167;BME280;2097;51.104;7.150;2023-04-07T00:41:45;98607.06;;;6.94;100.00
4167;BME280;2097;51.104;7.150;2023-04-07T00:44:12;98606.06;;;6.97;100.00
4167;BME280;2097;51.104;7.150;2023-04-07T00:46:39;98600.91;;;6.97;100.00
4167;BME280;2097;51.104;7.150;2023-04-07T00:49:06;98607.88;;;6.95;100.00
4167;BME280;2097;51.104;7.150;2023-04-07T00:51:33;98601.00;;;6.95;100.00
4167;BME280;2097;51.104;7.150;2023-04-07T00:54:01;98593.25;;;6.95;100.00
4167;BME280;2097;51.104;7.150;2023-04-07T00:56:28;98590.59;;;6.97;100.00
4167;BME280;2097;51.104;7.150;2023-04-07T00:58:56;98593.16;;;6.97;100.00
4167;BME280;2097;51.104;7.150;2023-04-07T01:01:25;98583.16;;;6.91;100.00
4167;BME280;2097;51.104;7.150;2023-04-07T01:03:57;98586.97;;;7.01;100.00
4167;BME280;2097;51.104;7.150;2023-04-07T01:06:30;98590.31;;;7.03;100.00
4167;BME280;2097;51.104;7.150;2023-04-07T01:09:03;98587.81;;;7.01;100.00
4167;BME280;2097;51.104;7.150;2023-04-07T01:11:35;98581.91;;;6.99;100.00
4167;BME280;2097;51.104;7.150;2023-04-07T01:14:05;98581.03;;;6.99;100.00
4167;BME280;2097;51.104;7.150;2023-04-07T01:16:37;98582.81;;;6.98;100.00
4167;BME280;2097;51.104;7.150;2023-04-07T01:19:13;98587.88;;;7.00;100.00
4167;BME280;2097;51.104;7.150;2023-04-07T01:21:43;98586.06;;;7.02;100.00
4167;BME280;2097;51.104;7.150;2023-04-07T01:24:38;98586.81;;;7.04;100.00
4167;BME280;2097;51.104;7.150;2023-04-07T01:27:17;98584.34;;;7.02;100.00
4167;BME280;2097;51.104;7.150;2023-04-07T01:29:46;98583.34;;;7.05;100.00
4167;BME280;2097;51.104;7.150;2023-04-07T01:32:17;98590.16;;;7.06;100.00
4167;BME280;2097;51.104;7.150;2023-04-07T01:34:46;98584.19;;;7.05;100.00
4167;BME280;2097;51.104;7.150;2023-04-07T01:37:15;98585.16;;;7.03;100.00
4167;BME280;2097;51.104;7.150;2023-04-07T01:39:42;98586.81;;;7.04;100.00
4167;BME280;2097;51.104;7.150;2023-04-07T01:42:09;98582.56;;;7.03;100.00
4167;BME280;2097;51.104;7.150;2023-04-07T01:44:37;98593.66;;;7.05;100.00
4167;BME280;2097;51.104;7.150;2023-04-07T01:47:06;98591.03;;;7.06;100.00
4167;BME280;2097;51.104;7.150;2023-04-07T01:49:34;98584.09;;;7.07;100.00
4167;BME280;2097;51.104;7.150;2023-04-07T01:52:02;98589.22;;;7.08;100.00
4167;BME280;2097;51.104;7.150;2023-04-07T01:54:30;98583.19;;;7.08;100.00
4167;BME280;2097;51.104;7.150;2023-04-07T01:56:57;98586.69;;;7.07;100.00
4167;BME280;2097;51.104;7.150;2023-04-07T01:59:24;98581.53;;;7.07;100.00
4167;BME280;2097;51.104;7.150;2023-04-07T02:01:51;98588.34;;;7.08;100.00
4167;BME280;2097;51.104;7.150;2023-04-07T02:04:24;98584.78;;;7.10;100.00
4167;BME280;2097;51.104;7.150;2023-04-07T02:06:54;98579.56;;;7.12;100.00
4167;BME280;2097;51.104;7.150;2023-04-07T02:09:23;98576.09;;;7.13;100.00
4167;BME280;2097;51.104;7.150;2023-04-07T02:11:53;98569.25;;;7.12;100.00
4167;BME280;2097;51.104;7.150;2023-04-07T02:14:21;98577.91;;;7.11;100.00
4167;BME280;2097;51.104;7.150;2023-04-07T02:16:50;98572.66;;;7.12;100.00
4167;BME280;2097;51.104;7.150;2023-04-07T02:19:19;98574.25;;;7.15;100.00
4167;BME280;2097;51.104;7.150;2023-04-07T02:21:47;98571.47;;;7.19;100.00
4167;BME280;2097;51.104;7.150;2023-04-07T02:24:18;98573.97;;;7.21;100.00
4167;BME280;2097;51.104;7.150;2023-04-07T02:26:46;98576.69;;;7.18;100.00
4167;BME280;2097;51.104;7.150;2023-04-07T02:29:13;98574.31;;;7.13;100.00
4167;BME280;2097;51.104;7.150;2023-04-07T02:31:40;98579.56;;;7.12;100.00
4167;BME280;2097;51.104;7.150;2023-04-07T02:34:07;98579.72;;;7.09;100.00
4167;BME280;2097;51.104;7.150;2023-04-07T02:36:35;98576.38;;;7.07;100.00
4167;BME280;2097;51.104;7.150;2023-04-07T02:39:02;98561.44;;;6.95;100.00
4167;BME280;2097;51.104;7.150;2023-04-07T02:41:29;98574.69;;;7.06;100.00
4167;BME280;2097;51.104;7.150;2023-04-07T02:43:55;98575.69;;;7.03;100.00
4167;BME280;2097;51.104;7.150;2023-04-07T02:46:22;98574.84;;;7.03;100.00
4167;BME280;2097;51.104;7.150;2023-04-07T02:48:49;98577.38;;;7.04;100.00
4167;BME280;2097;51.104;7.150;2023-04-07T02:51:16;98576.50;;;7.04;100.00
4167;BME280;2097;51.104;7.150;2023-04-07T02:53:44;98582.56;;;7.03;100.00
4167;BME280;2097;51.104;7.150;2023-04-07T02:56:11;98574.00;;;7.02;100.00
4167;BME280;2097;51.104;7.150;2023-04-07T02:58:37;98577.41;;;7.03;100.00
4167;BME280;2097;51.104;7.150;2023-04-07T03:01:04;98577.38;;;7.04;100.00
4167;BME280;2097;51.104;7.150;2023-04-07T03:03:31;98575.53;;;7.06;100.00
4167;BME280;2097;51.104;7.150;2023-04-07T03:05:58;98578.91;;;7.08;100.00
4167;BME280;2097;51.104;7.150;2023-04-07T03:08:25;98577.03;;;7.10;100.00
4167;BME280;2097;51.104;7.150;2023-04-07T03:10:54;98583.06;;;7.11;100.00
4167;BME280;2097;51.104;7.150;2023-04-07T03:13:20;98570.91;;;7.13;100.00
4167;BME280;2097;51.104;7.150;2023-04-07T03:15:47;98570.78;;;7.16;100.00
4167;BME280;2097;51.104;7.150;2023-04-07T03:18:14;98575.78;;;7.19;100.00
4167;BME280;2097;51.104;7.150;2023-04-07T03:20:41;98575.66;;;7.22;100.00
4167;BME280;2097;51.104;7.150;2023-04-07T03:23:08;98577.31;;;7.23;100.00
4167;BME280;2097;51.104;7.150;2023-04-07T03:25:35;98572.03;;;7.26;100.00
4167;BME280;2097;51.104;7.150;2023-04-07T03:28:04;98576.09;;;7.30;100.00
4167;BME280;2097;51.104;7.150;2023-04-07T03:30:31;98576.84;;;7.32;100.00
4167;BME280;2097;51.104;7.150;2023-04-07T03:32:57;98580.19;;;7.34;100.00
4167;BME280;2097;51.104;7.150;2023-04-07T03:35:24;98581.88;;;7.35;100.00
4167;BME280;2097;51.104;7.150;2023-04-07T03:37:51;98580.06;;;7.37;100.00
4167;BME280;2097;51.104;7.150;2023-04-07T03:40:18;98580.06;;;7.37;100.00
4167;BME280;2097;51.104;7.150;2023-04-07T03:42:45;98585.22;;;7.37;100.00
4167;BME280;2097;51.104;7.150;2023-04-07T03:45:13;98581.72;;;7.38;100.00
4167;BME280;2097;51.104;7.150;2023-04-07T03:47:40;98575.66;;;7.39;100.00
4167;BME280;2097;51.104;7.150;2023-04-07T03:50:08;98579.00;;;7.41;100.00
4167;BME280;2097;51.104;7.150;2023-04-07T03:52:35;98584.09;;;7.42;100.00
4167;BME280;2097;51.104;7.150;2023-04-07T03:55:02;98584.09;;;7.42;100.00
4167;BME280;2097;51.104;7.150;2023-04-07T03:57:29;98580.53;;;7.45;100.00
4167;BME280;2097;51.104;7.150;2023-04-07T03:59:56;98580.47;;;7.46;100.00
4167;BME280;2097;51.104;7.150;2023-04-07T04:02:24;98585.63;;;7.46;100.00
4167;BME280;2097;51.104;7.150;2023-04-07T04:04:51;98583.78;;;7.48;100.00
4167;BME280;2097;51.104;7.150;2023-04-07T04:07:17;98586.31;;;7.50;100.00
4167;BME280;2097;51.104;7.150;2023-04-07T04:09:44;98582.81;;;7.51;100.00
4167;BME280;2097;51.104;7.150;2023-04-07T04:12:11;98590.56;;;7.51;100.00
4167;BME280;2097;51.104;7.150;2023-04-07T04:14:38;98589.66;;;7.52;100.00
4167;BME280;2097;51.104;7.150;2023-04-07T04:17:05;98596.50;;;7.53;100.00
4167;BME280;2097;51.104;7.150;2023-04-07T04:19:33;98592.16;;;7.53;100.00
4167;BME280;2097;51.104;7.150;2023-04-07T04:22:00;98587.84;;;7.54;100.00
4167;BME280;2097;51.104;7.150;2023-04-07T04:24:26;98593.81;;;7.54;100.00
4167;BME280;2097;51.104;7.150;2023-04-07T04:26:53;98600.59;;;7.57;100.00
4167;BME280;2097;51.104;7.150;2023-04-07T04:29:21;98596.25;;;7.57;100.00
4167;BME280;2097;51.104;7.150;2023-04-07T04:31:47;98593.75;;;7.56;100.00
4167;BME280;2097;51.104;7.150;2023-04-07T04:34:14;98602.41;;;7.55;100.00
4167;BME280;2097;51.104;7.150;2023-04-07T04:36:43;98607.63;;;7.53;100.00
4167;BME280;2097;51.104;7.150;2023-04-07T04:39:10;98608.50;;;7.54;100.00
4167;BME280;2097;51.104;7.150;2023-04-07T04:41:36;98611.13;;;7.52;100.00
4167;BME280;2097;51.104;7.150;2023-04-07T04:44:03;98605.16;;;7.52;100.00
4167;BME280;2097;51.104;7.150;2023-04-07T04:46:30;98612.13;;;7.50;100.00
4167;BME280;2097;51.104;7.150;2023-04-07T04:48:57;98612.94;;;7.50;100.00
4167;BME280;2097;51.104;7.150;2023-04-07T04:51:24;98606.97;;;7.50;100.00
4167;BME280;2097;51.104;7.150;2023-04-07T04:53:53;98614.75;;;7.48;100.00
4167;BME280;2097;51.104;7.150;2023-04-07T04:56:19;98619.94;;;7.48;100.00
4167;BME280;2097;51.104;7.150;2023-04-07T04:58:46;98614.75;;;7.48;100.00
4167;BME280;2097;51.104;7.150;2023-04-07T05:01:13;98622.44;;;7.50;100.00
4167;BME280;2097;51.104;7.150;2023-04-07T05:03:40;98623.22;;;7.52;100.00
4167;BME280;2097;51.104;7.150;2023-04-07T05:06:07;98619.78;;;7.51;100.00
4167;BME280;2097;51.104;7.150;2023-04-07T05:08:33;98625.81;;;7.52;100.00
4167;BME280;2097;51.104;7.150;2023-04-07T05:11:02;98633.47;;;7.53;100.00
4167;BME280;2097;51.104;7.150;2023-04-07T05:13:28;98624.88;;;7.53;100.00
4167;BME280;2097;51.104;7.150;2023-04-07T05:15:55;98630.97;;;7.52;100.00
4167;BME280;2097;51.104;7.150;2023-04-07T05:18:22;98626.63;;;7.52;100.00
4167;BME280;2097;51.104;7.150;2023-04-07T05:20:49;98630.97;;;7.52;100.00
4167;BME280;2097;51.104;7.150;2023-04-07T05:23:16;98628.44;;;7.50;100.00
4167;BME280;2097;51.104;7.150;2023-04-07T05:25:42;98631.94;;;7.49;100.00
4167;BME280;2097;51.104;7.150;2023-04-07T05:28:11;98632.78;;;7.50;100.00
4167;BME280;2097;51.104;7.150;2023-04-07T05:30:38;98636.88;;;7.54;100.00
4167;BME280;2097;51.104;7.150;2023-04-07T05:33:04;98630.88;;;7.53;100.00
4167;BME280;2097;51.104;7.150;2023-04-07T05:35:31;98639.47;;;7.54;100.00
4167;BME280;2097;51.104;7.150;2023-04-07T05:37:58;98636.94;;;7.52;100.00
4167;BME280;2097;51.104;7.150;2023-04-07T05:40:25;98636.94;;;7.52;100.00
4167;BME280;2097;51.104;7.150;2023-04-07T05:42:52;98638.63;;;7.53;100.00
4167;BME280;2097;51.104;7.150;2023-04-07T05:45:20;98639.47;;;7.54;100.00
4167;BME280;2097;51.104;7.150;2023-04-07T05:47:47;98639.47;;;7.54;100.00
4167;BME280;2097;51.104;7.150;2023-04-07T05:50:15;98648.03;;;7.54;100.00
4167;BME280;2097;51.104;7.150;2023-04-07T05:52:42;98642.81;;;7.56;100.00
4167;BME280;2097;51.104;7.150;2023-04-07T05:55:08;98663.47;;;7.56;100.00
4167;BME280;2097;51.104;7.150;2023-04-07T05:57:35;98644.50;;;7.57;100.00
4167;BME280;2097;51.104;7.150;2023-04-07T06:00:03;98642.81;;;7.56;100.00
4167;BME280;2097;51.104;7.150;2023-04-07T06:02:31;98655.78;;;7.54;100.00
4167;BME280;2097;51.104;7.150;2023-04-07T06:04:58;98658.38;;;7.54;100.00
4167;BME280;2097;51.104;7.150;2023-04-07T06:07:24;98660.03;;;7.55;100.00
4167;BME280;2097;51.104;7.150;2023-04-07T06:09:51;98676.44;;;7.54;100.00
4167;BME280;2097;51.104;7.150;2023-04-07T06:12:18;98665.28;;;7.54;100.00
4167;BME280;2097;51.104;7.150;2023-04-07T06:14:46;98678.19;;;7.54;100.00
4167;BME280;2097;51.104;7.150;2023-04-07T06:17:12;98672.31;;;7.50;100.00
4167;BME280;2097;51.104;7.150;2023-04-07T06:19:41;98674.00;;;7.51;100.00
4167;BME280;2097;51.104;7.150;2023-04-07T06:22:07;98678.41;;;7.49;100.00
4167;BME280;2097;51.104;7.150;2023-04-07T06:24:34;98682.59;;;7.52;100.00
4167;BME280;2097;51.104;7.150;2023-04-07T06:27:01;98552.00;;;6.77;100.00
4167;BME280;2097;51.104;7.150;2023-04-07T06:29:29;98680.78;;;7.54;100.00
4167;BME280;2097;51.104;7.150;2023-04-07T06:31:56;98684.28;;;7.53;100.00
4167;BME280;2097;51.104;7.150;2023-04-07T06:34:22;98679.09;;;7.53;100.00
4167;BME280;2097;51.104;7.150;2023-04-07T06:36:51;98677.44;;;7.52;100.00
4167;BME280;2097;51.104;7.150;2023-04-07T06:39:17;98684.31;;;7.51;100.00
4167;BME280;2097;51.104;7.150;2023-04-07T06:41:44;98684.28;;;7.53;100.00
4167;BME280;2097;51.104;7.150;2023-04-07T06:44:11;98655.81;;;7.36;100.00
4167;BME280;2097;51.104;7.150;2023-04-07T06:46:38;98696.13;;;7.57;100.00
4167;BME280;2097;51.104;7.150;2023-04-07T06:49:06;98691.88;;;7.56;100.00
4167;BME280;2097;51.104;7.150;2023-04-07T06:51:33;98701.16;;;7.60;100.00
4167;BME280;2097;51.104;7.150;2023-04-07T06:54:01;98699.34;;;7.62;100.00
4167;BME280;2097;51.104;7.150;2023-04-07T06:56:28;98705.47;;;7.59;100.00
4167;BME280;2097;51.104;7.150;2023-04-07T06:58:55;98703.75;;;7.60;100.00
4167;BME280;2097;51.104;7.150;2023-04-07T07:01:22;98697.66;;;7.61;100.00
4167;BME280;2097;51.104;7.150;2023-04-07T07:03:49;98707.09;;;7.62;100.00
4167;BME280;2097;51.104;7.150;2023-04-07T07:06:16;98709.59;;;7.63;100.00
4167;BME280;2097;51.104;7.150;2023-04-07T07:08:42;98706.31;;;7.60;100.00
4167;BME280;2097;51.104;7.150;2023-04-07T07:11:11;98712.44;;;7.57;100.00
4167;BME280;2097;51.104;7.150;2023-04-07T07:13:37;98715.13;;;7.56;100.00
4167;BME280;2097;51.104;7.150;2023-04-07T07:16:05;98717.56;;;7.59;100.00
4167;BME280;2097;51.104;7.150;2023-04-07T07:18:31;98720.00;;;7.62;100.00
4167;BME280;2097;51.104;7.150;2023-04-07T07:20:58;98725.06;;;7.63;100.00
4167;BME280;2097;51.104;7.150;2023-04-07T07:23:28;98728.50;;;7.64;100.00
4167;BME280;2097;51.104;7.150;2023-04-07T07:25:55;98727.03;;;7.58;100.00
4167;BME280;2097;51.104;7.150;2023-04-07T07:28:23;98725.31;;;7.59;100.00
4167;BME280;2097;51.104;7.150;2023-04-07T07:30:50;98715.88;;;7.58;100.00
4167;BME280;2097;51.104;7.150;2023-04-07T07:33:17;98725.16;;;7.62;100.00
4167;BME280;2097;51.104;7.150;2023-04-07T07:35:43;98734.50;;;7.64;100.00
4167;BME280;2097;51.104;7.150;2023-04-07T07:38:10;98733.69;;;7.64;100.00
4167;BME280;2097;51.104;7.150;2023-04-07T07:40:37;98735.34;;;7.65;100.00
4167;BME280;2097;51.104;7.150;2023-04-07T07:43:04;98738.75;;;7.65;100.00
4167;BME280;2097;51.104;7.150;2023-04-07T07:45:32;98738.84;;;7.64;100.00
4167;BME280;2097;51.104;7.150;2023-04-07T07:47:59;98747.31;;;7.66;100.00
4167;BME280;2097;51.104;7.150;2023-04-07T07:50:26;98751.53;;;7.68;100.00
4167;BME280;2097;51.104;7.150;2023-04-07T07:52:53;98749.00;;;7.67;100.00
4167;BME280;2097;51.104;7.150;2023-04-07T07:55:20;98750.84;;;7.65;100.00
4167;BME280;2097;51.104;7.150;2023-04-07T07:57:46;98754.94;;;7.69;100.00
4167;BME280;2097;51.104;7.150;2023-04-07T08:00:14;98756.56;;;7.71;100.00
4167;BME280;2097;51.104;7.150;2023-04-07T08:02:42;98757.38;;;7.72;100.00
4167;BME280;2097;51.104;7.150;2023-04-07T08:05:09;98755.69;;;7.71;100.00
4167;BME280;2097;51.104;7.150;2023-04-07T08:07:37;98769.31;;;7.74;100.00
4167;BME280;2097;51.104;7.150;2023-04-07T08:10:05;98762.41;;;7.75;100.00
4167;BME280;2097;51.104;7.150;2023-04-07T08:12:31;98765.69;;;7.78;100.00
4167;BME280;2097;51.104;7.150;2023-04-07T08:14:58;98772.38;;;7.82;100.00
4167;BME280;2097;51.104;7.150;2023-04-07T08:17:25;98775.88;;;7.81;100.00
4167;BME280;2097;51.104;7.150;2023-04-07T08:19:54;98779.28;;;7.82;100.00
4167;BME280;2097;51.104;7.150;2023-04-07T08:22:21;98776.47;;;7.86;100.00
4167;BME280;2097;51.104;7.150;2023-04-07T08:24:47;98775.28;;;7.93;100.00
4167;BME280;2097;51.104;7.150;2023-04-07T08:27:14;98776.91;;;7.95;100.00
4167;BME280;2097;51.104;7.150;2023-04-07T08:29:42;98782.84;;;7.97;100.00
4167;BME280;2097;51.104;7.150;2023-04-07T08:32:09;98776.59;;;8.01;100.00
4167;BME280;2097;51.104;7.150;2023-04-07T08:34:36;98788.59;;;8.02;100.00
4167;BME280;2097;51.104;7.150;2023-04-07T08:37:04;98785.41;;;7.97;100.00
4167;BME280;2097;51.104;7.150;2023-04-07T08:39:33;98787.25;;;7.95;100.00
4167;BME280;2097;51.104;7.150;2023-04-07T08:42:00;98792.25;;;7.98;100.00
4167;BME280;2097;51.104;7.150;2023-04-07T08:44:28;98795.91;;;7.94;100.00
4167;BME280;2097;51.104;7.150;2023-04-07T08:46:56;98795.91;;;7.94;100.00
4167;BME280;2097;51.104;7.150;2023-04-07T08:49:27;98796.81;;;7.93;100.00
4167;BME280;2097;51.104;7.150;2023-04-07T08:51:55;98803.56;;;7.96;100.00
4167;BME280;2097;51.104;7.150;2023-04-07T08:54:27;98796.03;;;7.91;100.00
4167;BME280;2097;51.104;7.150;2023-04-07T08:56:54;98807.75;;;7.98;100.00
4167;BME280;2097;51.104;7.150;2023-04-07T08:59:21;98804.19;;;8.01;100.00
4167;BME280;2097;51.104;7.150;2023-04-07T09:01:51;98811.94;;;8.01;100.00
4167;BME280;2097;51.104;7.150;2023-04-07T09:04:18;98811.84;;;8.02;100.00
4167;BME280;2097;51.104;7.150;2023-04-07T09:06:48;98822.91;;;8.06;100.00
4167;BME280;2097;51.104;7.150;2023-04-07T09:09:15;98811.56;;;8.08;100.00
4167;BME280;2097;51.104;7.150;2023-04-07T09:11:43;98813.47;;;8.05;100.00
4167;BME280;2097;51.104;7.150;2023-04-07T09:14:13;98809.97;;;8.06;100.00
4167;BME280;2097;51.104;7.150;2023-04-07T09:16:40;98818.69;;;8.03;100.00
4167;BME280;2097;51.104;7.150;2023-04-07T09:19:08;98824.78;;;8.02;100.00
4167;BME280;2097;51.104;7.150;2023-04-07T09:21:48;98814.59;;;7.99;100.00
4167;BME280;2097;51.104;7.150;2023-04-07T09:24:22;98819.47;;;8.05;100.00
4167;BME280;2097;51.104;7.150;2023-04-07T09:27:07;98827.06;;;8.08;100.00
4167;BME280;2097;51.104;7.150;2023-04-07T09:29:34;98827.69;;;8.13;100.00
4167;BME280;2097;51.104;7.150;2023-04-07T09:32:02;98826.03;;;8.12;100.00
4167;BME280;2097;51.104;7.150;2023-04-07T09:34:30;98826.16;;;8.09;100.00
4167;BME280;2097;51.104;7.150;2023-04-07T09:36:57;98818.69;;;8.03;100.00
4167;BME280;2097;51.104;7.150;2023-04-07T09:39:25;98835.53;;;8.12;100.00
4167;BME280;2097;51.104;7.150;2023-04-07T09:41:53;98829.38;;;8.14;100.00
4167;BME280;2097;51.104;7.150;2023-04-07T09:44:21;98825.88;;;8.15;100.00
4167;BME280;2097;51.104;7.150;2023-04-07T09:46:48;98826.78;;;8.14;100.00
4167;BME280;2097;51.104;7.150;2023-04-07T09:49:15;98831.97;;;8.14;100.00
4167;BME280;2097;51.104;7.150;2023-04-07T09:51:52;98805.38;;;7.94;100.00
4167;BME280;2097;51.104;7.150;2023-04-07T09:54:31;98841.53;;;8.12;100.00
4167;BME280;2097;51.104;7.150;2023-04-07T09:57:00;98834.69;;;8.11;100.00
4167;BME280;2097;51.104;7.150;2023-04-07T09:59:28;98844.19;;;8.11;100.00
4167;BME280;2097;51.104;7.150;2023-04-07T10:01:55;98853.69;;;8.10;100.00
4167;BME280;2097;51.104;7.150;2023-04-07T10:04:22;98844.19;;;8.11;100.00
4167;BME280;2097;51.104;7.150;2023-04-07T10:06:51;98838.81;;;8.15;100.00
4167;BME280;2097;51.104;7.150;2023-04-07T10:09:19;98830.78;;;8.21;100.00
4167;BME280;2097;51.104;7.150;2023-04-07T10:11:46;98836.72;;;8.23;100.00
4167;BME280;2097;51.104;7.150;2023-04-07T10:14:15;98839.94;;;8.28;100.00
4167;BME280;2097;51.104;7.150;2023-04-07T10:16:43;98838.94;;;8.31;100.00
4167;BME280;2097;51.104;7.150;2023-04-07T10:19:12;98848.38;;;8.32;100.00
4167;BME280;2097;51.104;7.150;2023-04-07T10:21:40;98822.94;;;8.23;100.00
4167;BME280;2097;51.104;7.150;2023-04-07T10:24:15;98847.66;;;8.47;100.00
4167;BME280;2097;51.104;7.150;2023-04-07T10:26:50;98851.63;;;8.54;100.00
4167;BME280;2097;51.104;7.150;2023-04-07T10:29:21;98853.06;;;8.59;100.00
4167;BME280;2097;51.104;7.150;2023-04-07T10:31:49;98851.75;;;8.68;100.00
4167;BME280;2097;51.104;7.150;2023-04-07T10:34:17;98853.81;;;8.78;100.00
4167;BME280;2097;51.104;7.150;2023-04-07T10:37:12;98851.03;;;8.83;100.00
4167;BME280;2097;51.104;7.150;2023-04-07T10:39:39;98860.06;;;8.91;100.00
4167;BME280;2097;51.104;7.150;2023-04-07T10:42:06;98856.56;;;8.92;100.00
4167;BME280;2097;51.104;7.150;2023-04-07T10:44:54;98865.59;;;9.01;100.00
4167;BME280;2097;51.104;7.150;2023-04-07T10:47:21;98863.78;;;9.02;100.00
4167;BME280;2097;51.104;7.150;2023-04-07T10:50:13;98861.81;;;9.07;100.00
4167;BME280;2097;51.104;7.150;2023-04-07T10:52:41;98868.97;;;9.02;100.00
4167;BME280;2097;51.104;7.150;2023-04-07T10:55:30;98863.25;;;8.96;100.00
4167;BME280;2097;51.104;7.150;2023-04-07T10:58:17;98755.06;;;8.19;100.00
4167;BME280;2097;51.104;7.150;2023-04-07T11:01:17;98873.16;;;8.88;100.00
4167;BME280;2097;51.104;7.150;2023-04-07T11:03:56;98863.66;;;8.89;100.00
4167;BME280;2097;51.104;7.150;2023-04-07T11:06:23;98887.78;;;8.89;100.00
4167;BME280;2097;51.104;7.150;2023-04-07T11:08:50;98874.38;;;8.81;100.00
4167;BME280;2097;51.104;7.150;2023-04-07T11:11:33;98880.53;;;8.79;100.00
4167;BME280;2097;51.104;7.150;2023-04-07T11:14:00;98881.44;;;8.78;100.00
4167;BME280;2097;51.104;7.150;2023-04-07T11:16:36;98880.84;;;8.73;100.00
4167;BME280;2097;51.104;7.150;2023-04-07T11:19:02;98879.16;;;8.72;100.00
4167;BME280;2097;51.104;7.150;2023-04-07T11:21:29;98879.25;;;8.70;100.00
4167;BME280;2097;51.104;7.150;2023-04-07T11:23:56;98889.66;;;8.69;100.00
4167;BME280;2097;51.104;7.150;2023-04-07T11:26:23;98883.81;;;8.65;100.00
4167;BME280;2097;51.104;7.150;2023-04-07T11:28:53;98887.16;;;8.67;100.00
4167;BME280;2097;51.104;7.150;2023-04-07T11:31:22;98885.34;;;8.69;100.00
4167;BME280;2097;51.104;7.150;2023-04-07T11:33:52;98890.28;;;8.74;100.00
4167;BME280;2097;51.104;7.150;2023-04-07T11:36:27;98896.34;;;8.73;100.00
4167;BME280;2097;51.104;7.150;2023-04-07T11:38:54;98887.78;;;8.72;100.00
4167;BME280;2097;51.104;7.150;2023-04-07T11:41:22;98896.75;;;8.82;100.00
4167;BME280;2097;51.104;7.150;2023-04-07T11:44:02;98886.38;;;8.82;100.00
4167;BME280;2097;51.104;7.150;2023-04-07T11:46:29;98899.66;;;8.93;100.00
4167;BME280;2097;51.104;7.150;2023-04-07T11:49:07;98900.31;;;8.97;100.00
4167;BME280;2097;51.104;7.150;2023-04-07T11:51:35;98910.91;;;8.92;100.00
4167;BME280;2097;51.104;7.150;2023-04-07T11:54:02;98911.22;;;8.86;100.00
4167;BME280;2097;51.104;7.150;2023-04-07T11:56:28;98909.28;;;8.73;100.00
4167;BME280;2097;51.104;7.150;2023-04-07T11:58:55;98906.19;;;8.66;100.00
4167;BME280;2097;51.104;7.150;2023-04-07T12:01:37;98909.69;;;8.65;100.00
4167;BME280;2097;51.104;7.150;2023-04-07T12:04:12;98850.34;;;8.27;100.00
4167;BME280;2097;51.104;7.150;2023-04-07T12:06:38;98914.72;;;8.68;100.00
4167;BME280;2097;51.104;7.150;2023-04-07T12:09:07;98913.94;;;8.66;100.00
4167;BME280;2097;51.104;7.150;2023-04-07T12:11:35;98921.41;;;8.72;100.00
4167;BME280;2097;51.104;7.150;2023-04-07T12:14:02;98928.66;;;8.83;100.00
4167;BME280;2097;51.104;7.150;2023-04-07T12:16:29;98925.63;;;8.92;100.00
4167;BME280;2097;51.104;7.150;2023-04-07T12:18:56;98925.09;;;9.02;100.00
4167;BME280;2097;51.104;7.150;2023-04-07T12:21:24;98921.28;;;9.09;100.00
4167;BME280;2097;51.104;7.150;2023-04-07T12:23:51;98939.84;;;9.17;100.00
4167;BME280;2097;51.104;7.150;2023-04-07T12:26:18;98926.44;;;9.26;100.00
4167;BME280;2097;51.104;7.150;2023-04-07T12:28:46;98928.44;;;9.38;100.00
4167;BME280;2097;51.104;7.150;2023-04-07T12:31:13;98927.63;;;9.53;100.00
4167;BME280;2097;51.104;7.150;2023-04-07T12:33:40;98927.03;;;9.80;100.00
4167;BME280;2097;51.104;7.150;2023-04-07T12:36:07;98930.56;;;9.95;100.00
4167;BME280;2097;51.104;7.150;2023-04-07T12:38:35;98935.38;;;10.02;100.00
4167;BME280;2097;51.104;7.150;2023-04-07T12:41:02;98936.88;;;10.06;100.00
4167;BME280;2097;51.104;7.150;2023-04-07T12:43:28;98938.19;;;10.15;100.00
4167;BME280;2097;51.104;7.150;2023-04-07T12:45:56;98940.03;;;10.28;100.00
4167;BME280;2097;51.104;7.150;2023-04-07T12:48:23;98940.84;;;10.44;100.00
4167;BME280;2097;51.104;7.150;2023-04-07T12:50:51;98943.38;;;10.45;100.00
4167;BME280;2097;51.104;7.150;2023-04-07T12:53:18;98943.38;;;10.45;100.00
4167;BME280;2097;51.104;7.150;2023-04-07T12:55:47;98949.91;;;10.37;100.00
4167;BME280;2097;51.104;7.150;2023-04-07T12:58:14;98945.97;;;10.30;100.00
4167;BME280;2097;51.104;7.150;2023-04-07T13:00:41;98953.66;;;10.31;100.00
4167;BME280;2097;51.104;7.150;2023-04-07T13:03:08;98745.25;;;9.09;100.00
4167;BME280;2097;51.104;7.150;2023-04-07T13:05:35;98941.78;;;10.27;100.00
4167;BME280;2097;51.104;7.150;2023-04-07T13:08:02;98752.63;;;9.16;100.00
4167;BME280;2097;51.104;7.150;2023-04-07T13:10:29;98950.56;;;10.40;100.00
4167;BME280;2097;51.104;7.150;2023-04-07T13:12:58;98951.31;;;10.42;100.00
4167;BME280;2097;51.104;7.150;2023-04-07T13:15:25;98957.34;;;10.27;100.00
4167;BME280;2097;51.104;7.150;2023-04-07T13:17:52;98952.06;;;10.14;100.00
4167;BME280;2097;51.104;7.150;2023-04-07T13:20:19;98948.34;;;10.02;100.00
4167;BME280;2097;51.104;7.150;2023-04-07T13:22:46;98957.06;;;10.01;100.00
4167;BME280;2097;51.104;7.150;2023-04-07T13:25:13;98958.72;;;10.02;100.00
4167;BME280;2097;51.104;7.150;2023-04-07T13:27:40;98965.13;;;9.95;100.00
4167;BME280;2097;51.104;7.150;2023-04-07T13:30:09;98961.94;;;9.90;100.00